Pleasantville, Ohio
Current Conditions -  °F | °C
As of 5:53 AM on Thursday 23 Oct 2014 (Local Time) from KLHQ Reporting Station
Haze Haze  
Wind Chill: 37°   Ceiling: Unl
Heat Index: 40°   Visibility: 5mi
Dew Point: 37°   Wind: 5mph
Humidity: 89%   Direction: 330°NNW
Pressure: 30.23"   Gusts: NA
Location:  39.81°N, 82.52°W
Report Text: KLHQ 230953Z AUTO 33004KT 5SM BR CLR 04/03 A3023 RMK AO2 SLP239 T00440028
Loading
Personal Weather Stations






























Interactive Weather Map
Tropical Storm Tracking
New forecast layout! Learn more

10-Day Weather Forecast

Advertisements
Track Severe Weather on mobile